Nearby METAR Reports

 

K1V6 - Canon City, Colorado, USA
Distance from station: NE 34mi, 55km
Updated: 08/08/2022 9:15am MDT
Clear
Clear
 Wind from W
Wind: W 6 mph , 9 km/h
Temperature: 73°F , 23°C
Dew Point: 57°F , 14°C
Humidity: 57%
Barometer: 30.32 inHg , 1026.8 hPa
Clouds: Clear
Visibility: 10 miles , 16 km
2022/08/08 15:15 K1V6 081515Z AUTO 27005KT 10SM CLR 23/14 A3032 RMK AO2
K04V - Saguache Muni, Colorado, USA
Distance from station: W 35mi, 56km
Updated: 08/08/2022 9:15am MDT

 Wind from WSW
Wind: WSW 3 mph , 6 km/h
Temperature: 64°F , 18°C
Dew Point: 50°F , 10°C
Humidity: 60%
Barometer: 30.48 inHg , 1032.2 hPa
Visibility: 10 miles , 16 km
2022/08/08 15:15 K04V 081515Z AUTO 25003KT 10SM 18/10 A3048 RMK AO2 PWINO
 
KANK - Salida, Colorado, USA
Distance from station: NW 43mi, 69km
Updated: 08/08/2022 9:15am MDT
Clear
Clear
 Wind from NNE
Wind: NNE 3 mph , 6 km/h
Temperature: 66°F , 19°C
Dew Point: 52°F , 11°C
Humidity: 60%
Barometer: 30.52 inHg , 1033.5 hPa
Clouds: Clear
Visibility: 10 miles , 16 km
2022/08/08 15:15 KANK 081515Z AUTO 03003KT 10SM CLR 19/11 A3052 RMK AO1 T01870113
KVTP - La Veta Pass, Colorado, USA
Distance from station: SSE 44mi, 71km
Updated: 08/08/2022 9:15am MDT
Clear
Clear
 Wind from W
Wind: W 9 mph , 15 km/h
Temperature: 54°F , 12°C
Dew Point: 45°F , 7°C
Humidity: 72%
Barometer: 30.62 inHg , 1036.9 hPa
Clouds: Clear
Visibility: 10 miles , 16 km
2022/08/08 15:15 KVTP 081515Z AUTO 27008KT 10SM CLR 12/07 A3062 RMK AO2
 
KALS - Alamosa, Colorado, USA
Distance from station: SSW 48mi, 77km
Updated: 08/08/2022 8:52am MDT
Clear
Clear
 Wind from E
Wind: E 8 mph , 13 km/h
Temperature: 64°F , 18°C
Dew Point: 55°F , 13°C
Humidity: 73%
Barometer: 30.46 inHg , 1031.5 hPa
Clouds: Clear
Visibility: 10 miles , 16 km
2022/08/08 14:52 KALS 081452Z AUTO 08007KT 10SM CLR 18/13 A3046 RMK AO2 SLP223 T01830128 51005